sensor_id;sensor_type;location;lat;lon;timestamp;P1;durP1;ratioP1;P2;durP2;ratioP2
8572;SDS011;4324;42.012;24.872;2023-05-07T00:00:00;6.60;;;6.00;;
8572;SDS011;4324;42.012;24.872;2023-05-07T00:02:28;6.40;;;5.80;;
8572;SDS011;4324;42.012;24.872;2023-05-07T00:04:56;7.30;;;6.20;;
8572;SDS011;4324;42.012;24.872;2023-05-07T00:07:23;8.10;;;6.20;;
8572;SDS011;4324;42.012;24.872;2023-05-07T00:09:50;6.53;;;5.93;;
8572;SDS011;4324;42.012;24.872;2023-05-07T00:12:17;6.70;;;6.20;;
8572;SDS011;4324;42.012;24.872;2023-05-07T00:14:44;5.93;;;5.33;;
8572;SDS011;4324;42.012;24.872;2023-05-07T00:17:11;6.50;;;6.00;;
8572;SDS011;4324;42.012;24.872;2023-05-07T00:19:38;7.33;;;5.90;;
8572;SDS011;4324;42.012;24.872;2023-05-07T00:22:08;6.40;;;5.80;;
8572;SDS011;4324;42.012;24.872;2023-05-07T00:24:35;6.53;;;5.93;;
8572;SDS011;4324;42.012;24.872;2023-05-07T00:27:02;6.47;;;5.90;;
8572;SDS011;4324;42.012;24.872;2023-05-07T00:29:29;6.30;;;5.70;;
8572;SDS011;4324;42.012;24.872;2023-05-07T00:31:56;5.97;;;5.43;;
8572;SDS011;4324;42.012;24.872;2023-05-07T00:34:23;7.00;;;6.40;;
8572;SDS011;4324;42.012;24.872;2023-05-07T00:36:50;6.80;;;6.10;;
8572;SDS011;4324;42.012;24.872;2023-05-07T00:39:18;7.13;;;5.90;;
8572;SDS011;4324;42.012;24.872;2023-05-07T00:41:45;6.73;;;6.13;;
8572;SDS011;4324;42.012;24.872;2023-05-07T00:44:12;6.50;;;5.97;;
8572;SDS011;4324;42.012;24.872;2023-05-07T00:46:39;6.80;;;6.20;;
8572;SDS011;4324;42.012;24.872;2023-05-07T00:49:06;7.67;;;6.97;;
8572;SDS011;4324;42.012;24.872;2023-05-07T00:51:33;6.83;;;6.23;;
8572;SDS011;4324;42.012;24.872;2023-05-07T00:54:00;7.20;;;6.50;;
8572;SDS011;4324;42.012;24.872;2023-05-07T00:56:30;7.00;;;6.40;;
8572;SDS011;4324;42.012;24.872;2023-05-07T00:58:58;7.37;;;6.73;;
8572;SDS011;4324;42.012;24.872;2023-05-07T01:01:26;7.80;;;7.10;;
8572;SDS011;4324;42.012;24.872;2023-05-07T01:03:53;7.00;;;6.40;;
8572;SDS011;4324;42.012;24.872;2023-05-07T01:06:20;6.77;;;6.27;;
8572;SDS011;4324;42.012;24.872;2023-05-07T01:08:49;7.97;;;7.23;;
8572;SDS011;4324;42.012;24.872;2023-05-07T01:11:18;7.37;;;6.67;;
8572;SDS011;4324;42.012;24.872;2023-05-07T01:13:47;7.13;;;6.53;;
8572;SDS011;4324;42.012;24.872;2023-05-07T01:16:15;8.63;;;7.03;;
8572;SDS011;4324;42.012;24.872;2023-05-07T01:18:42;7.83;;;7.10;;
8572;SDS011;4324;42.012;24.872;2023-05-07T01:21:10;7.27;;;6.67;;
8572;SDS011;4324;42.012;24.872;2023-05-07T01:23:39;7.53;;;6.80;;
8572;SDS011;4324;42.012;24.872;2023-05-07T01:26:08;7.37;;;6.80;;
8572;SDS011;4324;42.012;24.872;2023-05-07T01:28:34;6.83;;;6.33;;
8572;SDS011;4324;42.012;24.872;2023-05-07T01:31:02;7.43;;;6.67;;
8572;SDS011;4324;42.012;24.872;2023-05-07T01:33:32;7.47;;;6.77;;
8572;SDS011;4324;42.012;24.872;2023-05-07T01:36:01;7.03;;;6.53;;
8572;SDS011;4324;42.012;24.872;2023-05-07T01:38:31;7.53;;;6.93;;
8572;SDS011;4324;42.012;24.872;2023-05-07T01:41:01;6.90;;;6.40;;
8572;SDS011;4324;42.012;24.872;2023-05-07T01:43:28;7.20;;;6.60;;
8572;SDS011;4324;42.012;24.872;2023-05-07T01:45:55;7.33;;;6.80;;
8572;SDS011;4324;42.012;24.872;2023-05-07T01:48:24;6.90;;;6.30;;
8572;SDS011;4324;42.012;24.872;2023-05-07T01:50:51;7.27;;;6.57;;
8572;SDS011;4324;42.012;24.872;2023-05-07T01:53:18;7.10;;;6.40;;
8572;SDS011;4324;42.012;24.872;2023-05-07T01:55:45;7.20;;;6.60;;
8572;SDS011;4324;42.012;24.872;2023-05-07T01:58:13;6.87;;;6.27;;
8572;SDS011;4324;42.012;24.872;2023-05-07T02:00:40;7.10;;;6.60;;
8572;SDS011;4324;42.012;24.872;2023-05-07T02:03:07;6.77;;;6.10;;
8572;SDS011;4324;42.012;24.872;2023-05-07T02:05:34;7.10;;;6.60;;
8572;SDS011;4324;42.012;24.872;2023-05-07T02:08:01;6.77;;;6.27;;
8572;SDS011;4324;42.012;24.872;2023-05-07T02:10:28;7.27;;;6.57;;
8572;SDS011;4324;42.012;24.872;2023-05-07T02:12:55;6.43;;;5.93;;
8572;SDS011;4324;42.012;24.872;2023-05-07T02:15:23;6.80;;;6.30;;
8572;SDS011;4324;42.012;24.872;2023-05-07T02:18:00;6.77;;;6.27;;
8572;SDS011;4324;42.012;24.872;2023-05-07T02:20:29;6.97;;;6.37;;
8572;SDS011;4324;42.012;24.872;2023-05-07T02:22:56;6.80;;;6.30;;
8572;SDS011;4324;42.012;24.872;2023-05-07T02:25:23;6.23;;;5.73;;
8572;SDS011;4324;42.012;24.872;2023-05-07T02:27:50;7.37;;;6.00;;
8572;SDS011;4324;42.012;24.872;2023-05-07T02:30:17;6.40;;;5.90;;
8572;SDS011;4324;42.012;24.872;2023-05-07T02:32:47;5.87;;;5.37;;
8572;SDS011;4324;42.012;24.872;2023-05-07T02:35:15;6.07;;;5.57;;
8572;SDS011;4324;42.012;24.872;2023-05-07T02:37:42;6.50;;;5.90;;
8572;SDS011;4324;42.012;24.872;2023-05-07T02:40:09;7.00;;;6.30;;
8572;SDS011;4324;42.012;24.872;2023-05-07T02:42:37;7.37;;;6.73;;
8572;SDS011;4324;42.012;24.872;2023-05-07T02:45:04;7.77;;;6.67;;
8572;SDS011;4324;42.012;24.872;2023-05-07T02:47:32;7.17;;;6.57;;
8572;SDS011;4324;42.012;24.872;2023-05-07T02:50:00;6.60;;;6.00;;
8572;SDS011;4324;42.012;24.872;2023-05-07T02:52:27;6.53;;;6.03;;
8572;SDS011;4324;42.012;24.872;2023-05-07T02:54:54;7.37;;;5.83;;
8572;SDS011;4324;42.012;24.872;2023-05-07T02:57:21;6.50;;;5.90;;
8572;SDS011;4324;42.012;24.872;2023-05-07T02:59:48;7.37;;;6.67;;
8572;SDS011;4324;42.012;24.872;2023-05-07T03:02:14;8.67;;;7.87;;
8572;SDS011;4324;42.012;24.872;2023-05-07T03:04:41;7.97;;;6.83;;
8572;SDS011;4324;42.012;24.872;2023-05-07T03:07:10;8.83;;;7.33;;
8572;SDS011;4324;42.012;24.872;2023-05-07T03:09:37;7.87;;;7.00;;
8572;SDS011;4324;42.012;24.872;2023-05-07T03:12:03;7.47;;;6.87;;
8572;SDS011;4324;42.012;24.872;2023-05-07T03:14:30;8.33;;;7.53;;
8572;SDS011;4324;42.012;24.872;2023-05-07T03:16:57;7.53;;;6.83;;
8572;SDS011;4324;42.012;24.872;2023-05-07T03:19:24;6.43;;;5.83;;
8572;SDS011;4324;42.012;24.872;2023-05-07T03:21:51;6.87;;;6.27;;
8572;SDS011;4324;42.012;24.872;2023-05-07T03:24:19;7.70;;;7.00;;
8572;SDS011;4324;42.012;24.872;2023-05-07T03:26:47;6.97;;;6.47;;
8572;SDS011;4324;42.012;24.872;2023-05-07T03:29:14;7.67;;;6.97;;
8572;SDS011;4324;42.012;24.872;2023-05-07T03:31:41;6.93;;;6.33;;
8572;SDS011;4324;42.012;24.872;2023-05-07T03:34:07;6.90;;;6.30;;
8572;SDS011;4324;42.012;24.872;2023-05-07T03:36:34;5.90;;;5.40;;
8572;SDS011;4324;42.012;24.872;2023-05-07T03:39:01;6.27;;;5.67;;
8572;SDS011;4324;42.012;24.872;2023-05-07T03:41:30;6.30;;;5.80;;
8572;SDS011;4324;42.012;24.872;2023-05-07T03:43:58;6.80;;;6.17;;
8572;SDS011;4324;42.012;24.872;2023-05-07T03:46:25;7.23;;;6.37;;
8572;SDS011;4324;42.012;24.872;2023-05-07T03:48:53;7.10;;;6.50;;
8572;SDS011;4324;42.012;24.872;2023-05-07T03:51:20;7.97;;;7.17;;
8572;SDS011;4324;42.012;24.872;2023-05-07T03:53:47;7.23;;;6.33;;
8572;SDS011;4324;42.012;24.872;2023-05-07T03:56:14;8.13;;;6.70;;
8572;SDS011;4324;42.012;24.872;2023-05-07T03:58:42;7.00;;;6.30;;
8572;SDS011;4324;42.012;24.872;2023-05-07T04:01:09;6.33;;;5.57;;
8572;SDS011;4324;42.012;24.872;2023-05-07T04:03:36;7.33;;;6.23;;
8572;SDS011;4324;42.012;24.872;2023-05-07T04:06:03;6.67;;;5.97;;
8572;SDS011;4324;42.012;24.872;2023-05-07T04:08:30;7.07;;;6.37;;
8572;SDS011;4324;42.012;24.872;2023-05-07T04:10:58;7.53;;;5.97;;
8572;SDS011;4324;42.012;24.872;2023-05-07T04:13:25;8.70;;;5.93;;
8572;SDS011;4324;42.012;24.872;2023-05-07T04:15:54;6.23;;;5.60;;
8572;SDS011;4324;42.012;24.872;2023-05-07T04:18:21;6.83;;;6.20;;
8572;SDS011;4324;42.012;24.872;2023-05-07T04:20:48;7.10;;;6.40;;
8572;SDS011;4324;42.012;24.872;2023-05-07T04:23:15;6.43;;;5.93;;
8572;SDS011;4324;42.012;24.872;2023-05-07T04:25:42;10.27;;;6.77;;
8572;SDS011;4324;42.012;24.872;2023-05-07T04:28:10;6.53;;;5.93;;
8572;SDS011;4324;42.012;24.872;2023-05-07T04:30:37;6.83;;;6.33;;
8572;SDS011;4324;42.012;24.872;2023-05-07T04:33:06;6.60;;;6.00;;
8572;SDS011;4324;42.012;24.872;2023-05-07T04:35:33;6.37;;;5.87;;
8572;SDS011;4324;42.012;24.872;2023-05-07T04:38:01;6.30;;;5.80;;
8572;SDS011;4324;42.012;24.872;2023-05-07T04:40:28;8.30;;;6.60;;
8572;SDS011;4324;42.012;24.872;2023-05-07T04:42:55;6.50;;;5.90;;
8572;SDS011;4324;42.012;24.872;2023-05-07T04:45:22;6.43;;;5.93;;
8572;SDS011;4324;42.012;24.872;2023-05-07T04:47:49;7.43;;;6.73;;
8572;SDS011;4324;42.012;24.872;2023-05-07T04:50:17;7.17;;;6.47;;
8572;SDS011;4324;42.012;24.872;2023-05-07T04:52:45;7.63;;;6.30;;
8572;SDS011;4324;42.012;24.872;2023-05-07T04:55:12;7.07;;;6.37;;
8572;SDS011;4324;42.012;24.872;2023-05-07T04:57:39;6.77;;;6.17;;
8572;SDS011;4324;42.012;24.872;2023-05-07T05:00:06;6.33;;;5.73;;
8572;SDS011;4324;42.012;24.872;2023-05-07T05:02:35;7.00;;;6.13;;
8572;SDS011;4324;42.012;24.872;2023-05-07T05:05:02;7.00;;;6.40;;
8572;SDS011;4324;42.012;24.872;2023-05-07T05:07:30;7.57;;;6.93;;
8572;SDS011;4324;42.012;24.872;2023-05-07T05:09:57;7.07;;;6.40;;
8572;SDS011;4324;42.012;24.872;2023-05-07T05:12:24;7.40;;;6.37;;
8572;SDS011;4324;42.012;24.872;2023-05-07T05:14:50;8.23;;;7.43;;
8572;SDS011;4324;42.012;24.872;2023-05-07T05:17:18;8.03;;;7.23;;
8572;SDS011;4324;42.012;24.872;2023-05-07T05:19:45;8.13;;;7.33;;
8572;SDS011;4324;42.012;24.872;2023-05-07T05:22:12;7.40;;;6.80;;
8572;SDS011;4324;42.012;24.872;2023-05-07T05:24:40;7.77;;;6.97;;
8572;SDS011;4324;42.012;24.872;2023-05-07T05:27:07;12.90;;;10.60;;
8572;SDS011;4324;42.012;24.872;2023-05-07T05:29:34;13.40;;;10.67;;
8572;SDS011;4324;42.012;24.872;2023-05-07T05:32:01;11.43;;;9.10;;
8572;SDS011;4324;42.012;24.872;2023-05-07T05:34:27;11.67;;;9.63;;
8572;SDS011;4324;42.012;24.872;2023-05-07T05:36:54;10.83;;;9.67;;
8572;SDS011;4324;42.012;24.872;2023-05-07T05:39:21;11.87;;;10.27;;
8572;SDS011;4324;42.012;24.872;2023-05-07T05:41:50;11.43;;;9.90;;
8572;SDS011;4324;42.012;24.872;2023-05-07T05:44:17;11.37;;;7.77;;
8572;SDS011;4324;42.012;24.872;2023-05-07T05:46:44;7.43;;;6.73;;
8572;SDS011;4324;42.012;24.872;2023-05-07T05:49:11;10.37;;;9.37;;
8572;SDS011;4324;42.012;24.872;2023-05-07T05:51:38;11.80;;;10.63;;
8572;SDS011;4324;42.012;24.872;2023-05-07T05:54:04;9.37;;;8.40;;
8572;SDS011;4324;42.012;24.872;2023-05-07T05:56:31;10.87;;;9.77;;
8572;SDS011;4324;42.012;24.872;2023-05-07T05:59:00;12.07;;;9.97;;
8572;SDS011;4324;42.012;24.872;2023-05-07T06:01:27;10.30;;;9.33;;
8572;SDS011;4324;42.012;24.872;2023-05-07T06:03:54;12.70;;;11.40;;
8572;SDS011;4324;42.012;24.872;2023-05-07T06:06:21;13.43;;;11.67;;
8572;SDS011;4324;42.012;24.872;2023-05-07T06:08:48;14.43;;;11.60;;
8572;SDS011;4324;42.012;24.872;2023-05-07T06:11:15;16.07;;;12.27;;
8572;SDS011;4324;42.012;24.872;2023-05-07T06:13:42;15.80;;;11.63;;
8572;SDS011;4324;42.012;24.872;2023-05-07T06:16:10;19.83;;;12.30;;
8572;SDS011;4324;42.012;24.872;2023-05-07T06:18:37;15.37;;;12.73;;
8572;SDS011;4324;42.012;24.872;2023-05-07T06:21:04;13.50;;;11.53;;
8572;SDS011;4324;42.012;24.872;2023-05-07T06:23:31;12.97;;;10.97;;
8572;SDS011;4324;42.012;24.872;2023-05-07T06:25:58;13.43;;;11.83;;
8572;SDS011;4324;42.012;24.872;2023-05-07T06:28:25;14.37;;;10.93;;
8572;SDS011;4324;42.012;24.872;2023-05-07T06:30:52;13.53;;;11.23;;
8572;SDS011;4324;42.012;24.872;2023-05-07T06:33:20;13.60;;;12.20;;
8572;SDS011;4324;42.012;24.872;2023-05-07T06:35:47;12.13;;;10.93;;
8572;SDS011;4324;42.012;24.872;2023-05-07T06:38:15;12.27;;;10.60;;
8572;SDS011;4324;42.012;24.872;2023-05-07T06:40:42;13.90;;;12.03;;
8572;SDS011;4324;42.012;24.872;2023-05-07T06:43:09;14.63;;;10.67;;
8572;SDS011;4324;42.012;24.872;2023-05-07T06:45:36;11.37;;;10.10;;
8572;SDS011;4324;42.012;24.872;2023-05-07T06:48:03;14.00;;;10.70;;
8572;SDS011;4324;42.012;24.872;2023-05-07T06:50:32;11.07;;;9.97;;
8572;SDS011;4324;42.012;24.872;2023-05-07T06:52:59;12.10;;;11.00;;
8572;SDS011;4324;42.012;24.872;2023-05-07T06:55:26;11.50;;;9.60;;
8572;SDS011;4324;42.012;24.872;2023-05-07T06:57:53;11.67;;;9.97;;
8572;SDS011;4324;42.012;24.872;2023-05-07T07:00:20;11.10;;;10.00;;
8572;SDS011;4324;42.012;24.872;2023-05-07T07:02:47;10.30;;;9.23;;
8572;SDS011;4324;42.012;24.872;2023-05-07T07:05:14;10.37;;;9.37;;
8572;SDS011;4324;42.012;24.872;2023-05-07T07:07:42;11.03;;;9.17;;
8572;SDS011;4324;42.012;24.872;2023-05-07T07:10:09;10.47;;;8.73;;
8572;SDS011;4324;42.012;24.872;2023-05-07T07:12:36;11.27;;;9.80;;
8572;SDS011;4324;42.012;24.872;2023-05-07T07:15:03;10.83;;;8.63;;
8572;SDS011;4324;42.012;24.872;2023-05-07T07:17:31;9.53;;;8.40;;
8572;SDS011;4324;42.012;24.872;2023-05-07T07:19:57;9.77;;;8.40;;
8572;SDS011;4324;42.012;24.872;2023-05-07T07:22:24;8.50;;;7.70;;
8572;SDS011;4324;42.012;24.872;2023-05-07T07:24:52;8.57;;;7.67;;
8572;SDS011;4324;42.012;24.872;2023-05-07T07:27:19;8.17;;;7.40;;
8572;SDS011;4324;42.012;24.872;2023-05-07T07:29:46;9.07;;;7.73;;
8572;SDS011;4324;42.012;24.872;2023-05-07T07:32:13;10.53;;;8.10;;
8572;SDS011;4324;42.012;24.872;2023-05-07T07:34:40;9.37;;;8.47;;
8572;SDS011;4324;42.012;24.872;2023-05-07T07:37:07;12.57;;;7.83;;
8572;SDS011;4324;42.012;24.872;2023-05-07T07:39:34;7.83;;;6.97;;
8572;SDS011;4324;42.012;24.872;2023-05-07T07:42:04;11.17;;;10.07;;
8572;SDS011;4324;42.012;24.872;2023-05-07T07:44:31;11.10;;;9.93;;
8572;SDS011;4324;42.012;24.872;2023-05-07T07:46:57;9.07;;;8.17;;
8572;SDS011;4324;42.012;24.872;2023-05-07T07:49:24;7.20;;;6.50;;
8572;SDS011;4324;42.012;24.872;2023-05-07T07:51:51;10.10;;;9.20;;
8572;SDS011;4324;42.012;24.872;2023-05-07T07:54:18;7.30;;;6.60;;
8572;SDS011;4324;42.012;24.872;2023-05-07T07:56:45;6.83;;;6.23;;
8572;SDS011;4324;42.012;24.872;2023-05-07T07:59:13;6.43;;;5.83;;
8572;SDS011;4324;42.012;24.872;2023-05-07T08:01:43;7.07;;;6.00;;
8572;SDS011;4324;42.012;24.872;2023-05-07T08:04:11;6.60;;;6.00;;
8572;SDS011;4324;42.012;24.872;2023-05-07T08:06:38;6.43;;;5.83;;
8572;SDS011;4324;42.012;24.872;2023-05-07T08:09:05;7.13;;;6.43;;
8572;SDS011;4324;42.012;24.872;2023-05-07T08:11:31;6.70;;;6.10;;
8572;SDS011;4324;42.012;24.872;2023-05-07T08:13:59;8.20;;;5.80;;
8572;SDS011;4324;42.012;24.872;2023-05-07T08:16:28;6.93;;;6.33;;
8572;SDS011;4324;42.012;24.872;2023-05-07T08:18:55;8.07;;;7.33;;
8572;SDS011;4324;42.012;24.872;2023-05-07T08:21:22;9.80;;;8.93;;
8572;SDS011;4324;42.012;24.872;2023-05-07T08:23:49;7.50;;;6.80;;
8572;SDS011;4324;42.012;24.872;2023-05-07T08:26:16;6.50;;;5.97;;
8572;SDS011;4324;42.012;24.872;2023-05-07T08:28:43;7.60;;;5.50;;
8572;SDS011;4324;42.012;24.872;2023-05-07T08:31:10;6.00;;;5.60;;
8572;SDS011;4324;42.012;24.872;2023-05-07T08:33:38;4.90;;;4.50;;
8572;SDS011;4324;42.012;24.872;2023-05-07T08:36:05;5.70;;;5.13;;
8572;SDS011;4324;42.012;24.872;2023-05-07T08:38:32;6.30;;;5.80;;
8572;SDS011;4324;42.012;24.872;2023-05-07T08:40:58;6.33;;;5.73;;
8572;SDS011;4324;42.012;24.872;2023-05-07T08:43:26;6.60;;;5.90;;
8572;SDS011;4324;42.012;24.872;2023-05-07T08:45:54;5.97;;;5.17;;
8572;SDS011;4324;42.012;24.872;2023-05-07T08:48:24;5.30;;;4.90;;
8572;SDS011;4324;42.012;24.872;2023-05-07T08:50:57;5.10;;;4.70;;
8572;SDS011;4324;42.012;24.872;2023-05-07T08:53:24;5.70;;;5.10;;
8572;SDS011;4324;42.012;24.872;2023-05-07T08:55:51;5.40;;;4.97;;
8572;SDS011;4324;42.012;24.872;2023-05-07T08:58:19;6.97;;;4.90;;
8572;SDS011;4324;42.012;24.872;2023-05-07T09:00:46;6.40;;;5.80;;
8572;SDS011;4324;42.012;24.872;2023-05-07T09:03:13;4.83;;;4.43;;
8572;SDS011;4324;42.012;24.872;2023-05-07T09:05:41;5.10;;;4.60;;
8572;SDS011;4324;42.012;24.872;2023-05-07T09:08:14;5.13;;;4.63;;
8572;SDS011;4324;42.012;24.872;2023-05-07T09:10:41;5.60;;;5.10;;
8572;SDS011;4324;42.012;24.872;2023-05-07T09:13:08;6.00;;;5.40;;
8572;SDS011;4324;42.012;24.872;2023-05-07T09:15:38;5.90;;;5.40;;
8572;SDS011;4324;42.012;24.872;2023-05-07T09:18:05;6.23;;;5.40;;
8572;SDS011;4324;42.012;24.872;2023-05-07T09:20:31;5.20;;;4.80;;
8572;SDS011;4324;42.012;24.872;2023-05-07T09:22:58;5.60;;;5.20;;
8572;SDS011;4324;42.012;24.872;2023-05-07T09:25:30;5.07;;;4.60;;
8572;SDS011;4324;42.012;24.872;2023-05-07T09:27:58;5.97;;;4.63;;
8572;SDS011;4324;42.012;24.872;2023-05-07T09:30:27;8.00;;;4.90;;
8572;SDS011;4324;42.012;24.872;2023-05-07T09:32:54;4.70;;;4.30;;
8572;SDS011;4324;42.012;24.872;2023-05-07T09:35:21;5.47;;;4.40;;
8572;SDS011;4324;42.012;24.872;2023-05-07T09:37:49;5.00;;;4.57;;
8572;SDS011;4324;42.012;24.872;2023-05-07T09:40:21;4.97;;;4.50;;
8572;SDS011;4324;42.012;24.872;2023-05-07T09:42:50;5.00;;;4.00;;
8572;SDS011;4324;42.012;24.872;2023-05-07T09:45:21;4.00;;;3.60;;
8572;SDS011;4324;42.012;24.872;2023-05-07T09:47:48;4.13;;;3.73;;
8572;SDS011;4324;42.012;24.872;2023-05-07T09:50:19;12.77;;;11.63;;
8572;SDS011;4324;42.012;24.872;2023-05-07T09:52:52;5.67;;;4.67;;
8572;SDS011;4324;42.012;24.872;2023-05-07T09:55:19;4.27;;;3.97;;
8572;SDS011;4324;42.012;24.872;2023-05-07T09:57:48;5.00;;;4.50;;
8572;SDS011;4324;42.012;24.872;2023-05-07T10:00:19;4.50;;;4.10;;
8572;SDS011;4324;42.012;24.872;2023-05-07T10:02:46;4.43;;;4.03;;
8572;SDS011;4324;42.012;24.872;2023-05-07T10:05:16;4.80;;;4.30;;
8572;SDS011;4324;42.012;24.872;2023-05-07T10:07:44;4.40;;;3.80;;
8572;SDS011;4324;42.012;24.872;2023-05-07T10:10:11;3.87;;;3.57;;
8572;SDS011;4324;42.012;24.872;2023-05-07T10:12:39;4.10;;;3.80;;
8572;SDS011;4324;42.012;24.872;2023-05-07T10:15:09;4.27;;;3.87;;
8572;SDS011;4324;42.012;24.872;2023-05-07T10:17:36;4.93;;;3.80;;
8572;SDS011;4324;42.012;24.872;2023-05-07T10:20:05;4.47;;;3.87;;
8572;SDS011;4324;42.012;24.872;2023-05-07T10:22:37;4.40;;;4.00;;
8572;SDS011;4324;42.012;24.872;2023-05-07T10:25:06;7.73;;;5.17;;
8572;SDS011;4324;42.012;24.872;2023-05-07T10:27:36;4.97;;;4.03;;
8572;SDS011;4324;42.012;24.872;2023-05-07T10:30:06;4.00;;;3.70;;
8572;SDS011;4324;42.012;24.872;2023-05-07T10:32:43;5.73;;;5.33;;
8572;SDS011;4324;42.012;24.872;2023-05-07T10:35:14;5.67;;;4.47;;
8572;SDS011;4324;42.012;24.872;2023-05-07T10:37:45;4.97;;;4.20;;
8572;SDS011;4324;42.012;24.872;2023-05-07T10:40:13;4.20;;;3.80;;
8572;SDS011;4324;42.012;24.872;2023-05-07T10:42:53;4.83;;;4.13;;
8572;SDS011;4324;42.012;24.872;2023-05-07T10:45:23;4.63;;;3.80;;
8572;SDS011;4324;42.012;24.872;2023-05-07T10:48:07;3.90;;;3.60;;
8572;SDS011;4324;42.012;24.872;2023-05-07T10:50:37;4.37;;;3.97;;
8572;SDS011;4324;42.012;24.872;2023-05-07T10:53:21;4.30;;;4.00;;
8572;SDS011;4324;42.012;24.872;2023-05-07T10:58:55;4.30;;;3.90;;
8572;SDS011;4324;42.012;24.872;2023-05-07T11:04:19;5.07;;;4.20;;
8572;SDS011;4324;42.012;24.872;2023-05-07T11:09:55;5.27;;;3.90;;
8572;SDS011;4324;42.012;24.872;2023-05-07T11:18:06;5.10;;;3.97;;
8572;SDS011;4324;42.012;24.872;2023-05-07T11:20:52;5.57;;;3.93;;
8572;SDS011;4324;42.012;24.872;2023-05-07T11:26:22;3.87;;;3.57;;
8572;SDS011;4324;42.012;24.872;2023-05-07T11:28:51;4.23;;;3.90;;
8572;SDS011;4324;42.012;24.872;2023-05-07T11:31:23;4.00;;;3.60;;
8572;SDS011;4324;42.012;24.872;2023-05-07T11:33:53;4.60;;;4.20;;
8572;SDS011;4324;42.012;24.872;2023-05-07T11:36:21;4.53;;;4.10;;
8572;SDS011;4324;42.012;24.872;2023-05-07T11:38:49;4.27;;;3.90;;
8572;SDS011;4324;42.012;24.872;2023-05-07T11:41:17;6.10;;;4.00;;
8572;SDS011;4324;42.012;24.872;2023-05-07T11:43:58;4.40;;;4.00;;
8572;SDS011;4324;42.012;24.872;2023-05-07T11:46:26;4.40;;;4.10;;
8572;SDS011;4324;42.012;24.872;2023-05-07T11:48:55;4.37;;;3.97;;
8572;SDS011;4324;42.012;24.872;2023-05-07T11:51:23;5.23;;;3.97;;
8572;SDS011;4324;42.012;24.872;2023-05-07T11:53:52;4.30;;;4.00;;
8572;SDS011;4324;42.012;24.872;2023-05-07T11:56:19;4.60;;;4.20;;
8572;SDS011;4324;42.012;24.872;2023-05-07T11:58:47;5.03;;;4.03;;
8572;SDS011;4324;42.012;24.872;2023-05-07T12:01:14;7.13;;;5.50;;
8572;SDS011;4324;42.012;24.872;2023-05-07T12:03:44;5.23;;;4.50;;
8572;SDS011;4324;42.012;24.872;2023-05-07T12:06:14;6.47;;;5.07;;
8572;SDS011;4324;42.012;24.872;2023-05-07T12:08:42;4.27;;;3.83;;
8572;SDS011;4324;42.012;24.872;2023-05-07T12:11:13;4.87;;;4.17;;
8572;SDS011;4324;42.012;24.872;2023-05-07T12:13:43;4.60;;;4.20;;
8572;SDS011;4324;42.012;24.872;2023-05-07T12:16:10;5.00;;;4.50;;
8572;SDS011;4324;42.012;24.872;2023-05-07T12:18:39;4.17;;;3.77;;
8572;SDS011;4324;42.012;24.872;2023-05-07T12:21:06;4.87;;;4.40;;
8572;SDS011;4324;42.012;24.872;2023-05-07T12:23:36;4.50;;;4.00;;
8572;SDS011;4324;42.012;24.872;2023-05-07T12:26:03;4.07;;;3.77;;
8572;SDS011;4324;42.012;24.872;2023-05-07T12:28:36;4.87;;;3.80;;
8572;SDS011;4324;42.012;24.872;2023-05-07T12:31:04;7.17;;;4.50;;
8572;SDS011;4324;42.012;24.872;2023-05-07T12:33:31;4.43;;;4.00;;
8572;SDS011;4324;42.012;24.872;2023-05-07T12:36:00;4.20;;;3.80;;
8572;SDS011;4324;42.012;24.872;2023-05-07T12:38:34;4.30;;;3.90;;
8572;SDS011;4324;42.012;24.872;2023-05-07T12:41:07;4.30;;;3.90;;
8572;SDS011;4324;42.012;24.872;2023-05-07T12:43:35;3.90;;;3.60;;
8572;SDS011;4324;42.012;24.872;2023-05-07T12:46:03;4.03;;;3.70;;
8572;SDS011;4324;42.012;24.872;2023-05-07T12:48:32;5.93;;;4.00;;
8572;SDS011;4324;42.012;24.872;2023-05-07T12:51:00;4.27;;;3.87;;
8572;SDS011;4324;42.012;24.872;2023-05-07T12:53:28;4.20;;;3.80;;
8572;SDS011;4324;42.012;24.872;2023-05-07T12:55:58;4.13;;;3.73;;
8572;SDS011;4324;42.012;24.872;2023-05-07T12:58:26;4.00;;;3.70;;
8572;SDS011;4324;42.012;24.872;2023-05-07T13:00:54;4.50;;;4.10;;
8572;SDS011;4324;42.012;24.872;2023-05-07T13:03:27;3.77;;;3.43;;
8572;SDS011;4324;42.012;24.872;2023-05-07T13:05:55;4.97;;;3.93;;
8572;SDS011;4324;42.012;24.872;2023-05-07T13:08:25;3.90;;;3.60;;
8572;SDS011;4324;42.012;24.872;2023-05-07T13:10:53;4.47;;;4.07;;
8572;SDS011;4324;42.012;24.872;2023-05-07T13:13:21;4.00;;;3.70;;
8572;SDS011;4324;42.012;24.872;2023-05-07T13:15:48;5.37;;;4.87;;
8572;SDS011;4324;42.012;24.872;2023-05-07T13:18:15;4.00;;;3.70;;
8572;SDS011;4324;42.012;24.872;2023-05-07T13:20:42;3.60;;;3.30;;
8572;SDS011;4324;42.012;24.872;2023-05-07T13:23:09;3.97;;;3.30;;
8572;SDS011;4324;42.012;24.872;2023-05-07T13:25:36;8.30;;;7.60;;
8572;SDS011;4324;42.012;24.872;2023-05-07T13:28:03;3.83;;;3.50;;
8572;SDS011;4324;42.012;24.872;2023-05-07T13:30:31;4.40;;;4.00;;
8572;SDS011;4324;42.012;24.872;2023-05-07T13:32:58;3.97;;;3.60;;
8572;SDS011;4324;42.012;24.872;2023-05-07T13:35:25;4.43;;;3.53;;
8572;SDS011;4324;42.012;24.872;2023-05-07T13:37:52;6.30;;;5.70;;
8572;SDS011;4324;42.012;24.872;2023-05-07T13:40:20;4.10;;;3.70;;
8572;SDS011;4324;42.012;24.872;2023-05-07T13:42:47;3.77;;;3.40;;
8572;SDS011;4324;42.012;24.872;2023-05-07T13:45:17;3.70;;;3.33;;
8572;SDS011;4324;42.012;24.872;2023-05-07T13:47:46;3.30;;;3.10;;
8572;SDS011;4324;42.012;24.872;2023-05-07T13:50:14;3.93;;;3.53;;
8572;SDS011;4324;42.012;24.872;2023-05-07T13:52:42;3.80;;;3.00;;
8572;SDS011;4324;42.012;24.872;2023-05-07T13:55:12;3.97;;;3.60;;
8572;SDS011;4324;42.012;24.872;2023-05-07T13:57:39;5.77;;;3.73;;
8572;SDS011;4324;42.012;24.872;2023-05-07T14:00:07;3.87;;;3.53;;
8572;SDS011;4324;42.012;24.872;2023-05-07T14:02:34;5.60;;;3.40;;
8572;SDS011;4324;42.012;24.872;2023-05-07T14:05:03;3.50;;;3.20;;
8572;SDS011;4324;42.012;24.872;2023-05-07T14:07:30;3.80;;;3.20;;
8572;SDS011;4324;42.012;24.872;2023-05-07T14:09:57;4.30;;;3.30;;
8572;SDS011;4324;42.012;24.872;2023-05-07T14:12:24;3.80;;;3.40;;
8572;SDS011;4324;42.012;24.872;2023-05-07T14:14:51;3.97;;;3.57;;
8572;SDS011;4324;42.012;24.872;2023-05-07T14:17:18;4.00;;;3.70;;
8572;SDS011;4324;42.012;24.872;2023-05-07T14:19:48;3.43;;;3.13;;
8572;SDS011;4324;42.012;24.872;2023-05-07T14:22:16;3.97;;;3.53;;
8572;SDS011;4324;42.012;24.872;2023-05-07T14:24:43;3.80;;;3.50;;
8572;SDS011;4324;42.012;24.872;2023-05-07T14:27:10;3.50;;;3.20;;
8572;SDS011;4324;42.012;24.872;2023-05-07T14:29:37;4.57;;;3.20;;
8572;SDS011;4324;42.012;24.872;2023-05-07T14:32:04;4.57;;;3.10;;
8572;SDS011;4324;42.012;24.872;2023-05-07T14:34:31;3.67;;;3.47;;
8572;SDS011;4324;42.012;24.872;2023-05-07T14:36:59;4.87;;;3.40;;
8572;SDS011;4324;42.012;24.872;2023-05-07T14:39:28;3.83;;;3.53;;
8572;SDS011;4324;42.012;24.872;2023-05-07T14:41:55;4.10;;;3.80;;
8572;SDS011;4324;42.012;24.872;2023-05-07T14:44:23;5.47;;;3.83;;
8572;SDS011;4324;42.012;24.872;2023-05-07T14:46:50;3.90;;;3.50;;
8572;SDS011;4324;42.012;24.872;2023-05-07T14:49:17;4.50;;;3.70;;
8572;SDS011;4324;42.012;24.872;2023-05-07T14:51:44;3.53;;;3.23;;
8572;SDS011;4324;42.012;24.872;2023-05-07T14:54:11;3.97;;;3.60;;
8572;SDS011;4324;42.012;24.872;2023-05-07T14:56:40;3.83;;;3.20;;
8572;SDS011;4324;42.012;24.872;2023-05-07T14:59:08;4.63;;;3.70;;
8572;SDS011;4324;42.012;24.872;2023-05-07T15:01:35;7.37;;;6.27;;
8572;SDS011;4324;42.012;24.872;2023-05-07T15:04:02;4.10;;;3.57;;
8572;SDS011;4324;42.012;24.872;2023-05-07T15:06:30;4.33;;;3.40;;
8572;SDS011;4324;42.012;24.872;2023-05-07T15:08:57;3.97;;;3.37;;
8572;SDS011;4324;42.012;24.872;2023-05-07T15:11:27;3.50;;;3.20;;
8572;SDS011;4324;42.012;24.872;2023-05-07T15:13:55;3.47;;;3.27;;
8572;SDS011;4324;42.012;24.872;2023-05-07T15:16:25;4.13;;;3.10;;
8572;SDS011;4324;42.012;24.872;2023-05-07T15:18:52;4.07;;;3.20;;